sensor_id;sensor_type;location;lat;lon;timestamp;P1;durP1;ratioP1;P2;durP2;ratioP2
10410;SDS011;5251;52.112;8.606;2022-09-09T00:00:14;2.72;;;1.30;;
10410;SDS011;5251;52.112;8.606;2022-09-09T00:03:27;1.15;;;1.05;;
10410;SDS011;5251;52.112;8.606;2022-09-09T00:14:21;1.35;;;1.02;;
10410;SDS011;5251;52.112;8.606;2022-09-09T00:16:53;1.83;;;0.90;;
10410;SDS011;5251;52.112;8.606;2022-09-09T00:19:33;0.90;;;0.90;;
10410;SDS011;5251;52.112;8.606;2022-09-09T00:22:20;1.80;;;1.00;;
10410;SDS011;5251;52.112;8.606;2022-09-09T00:24:52;2.45;;;1.00;;
10410;SDS011;5251;52.112;8.606;2022-09-09T00:27:25;1.27;;;0.98;;
10410;SDS011;5251;52.112;8.606;2022-09-09T00:30:15;1.08;;;0.80;;
10410;SDS011;5251;52.112;8.606;2022-09-09T00:32:48;1.08;;;0.85;;
10410;SDS011;5251;52.112;8.606;2022-09-09T00:37:53;2.70;;;0.90;;
10410;SDS011;5251;52.112;8.606;2022-09-09T00:40:23;1.48;;;1.00;;
10410;SDS011;5251;52.112;8.606;2022-09-09T00:42:59;2.83;;;1.00;;
10410;SDS011;5251;52.112;8.606;2022-09-09T00:48:19;1.75;;;0.90;;
10410;SDS011;5251;52.112;8.606;2022-09-09T00:50:56;2.80;;;1.00;;
10410;SDS011;5251;52.112;8.606;2022-09-09T00:56:16;1.48;;;0.90;;
10410;SDS011;5251;52.112;8.606;2022-09-09T00:59:00;3.08;;;0.90;;
10410;SDS011;5251;52.112;8.606;2022-09-09T01:01:51;3.00;;;0.95;;
10410;SDS011;5251;52.112;8.606;2022-09-09T01:04:21;1.77;;;1.08;;
10410;SDS011;5251;52.112;8.606;2022-09-09T01:06:55;1.92;;;1.00;;
10410;SDS011;5251;52.112;8.606;2022-09-09T01:09:32;1.52;;;0.90;;
10410;SDS011;5251;52.112;8.606;2022-09-09T01:17:16;1.45;;;1.00;;
10410;SDS011;5251;52.112;8.606;2022-09-09T01:19:55;3.58;;;1.20;;
10410;SDS011;5251;52.112;8.606;2022-09-09T01:28:16;2.28;;;1.23;;
10410;SDS011;5251;52.112;8.606;2022-09-09T01:30:44;1.67;;;1.05;;
10410;SDS011;5251;52.112;8.606;2022-09-09T01:33:12;1.80;;;1.00;;
10410;SDS011;5251;52.112;8.606;2022-09-09T01:35:54;2.15;;;1.23;;
10410;SDS011;5251;52.112;8.606;2022-09-09T01:38:25;1.80;;;1.20;;
10410;SDS011;5251;52.112;8.606;2022-09-09T01:40:52;1.83;;;1.10;;
10410;SDS011;5251;52.112;8.606;2022-09-09T01:43:22;1.13;;;1.00;;
10410;SDS011;5251;52.112;8.606;2022-09-09T01:45:49;1.73;;;1.02;;
10410;SDS011;5251;52.112;8.606;2022-09-09T01:48:18;2.58;;;1.30;;
10410;SDS011;5251;52.112;8.606;2022-09-09T01:50:45;2.00;;;1.20;;
10410;SDS011;5251;52.112;8.606;2022-09-09T01:53:10;1.60;;;1.20;;
10410;SDS011;5251;52.112;8.606;2022-09-09T01:55:37;1.60;;;1.15;;
10410;SDS011;5251;52.112;8.606;2022-09-09T02:00:41;2.05;;;1.25;;
10410;SDS011;5251;52.112;8.606;2022-09-09T02:03:20;3.67;;;1.58;;
10410;SDS011;5251;52.112;8.606;2022-09-09T02:08:33;2.40;;;1.23;;
10410;SDS011;5251;52.112;8.606;2022-09-09T02:11:07;2.85;;;1.27;;
10410;SDS011;5251;52.112;8.606;2022-09-09T02:13:38;4.53;;;1.27;;
10410;SDS011;5251;52.112;8.606;2022-09-09T02:16:07;1.60;;;1.17;;
10410;SDS011;5251;52.112;8.606;2022-09-09T02:18:35;1.58;;;1.10;;
10410;SDS011;5251;52.112;8.606;2022-09-09T02:21:16;1.42;;;1.05;;
10410;SDS011;5251;52.112;8.606;2022-09-09T02:23:43;1.52;;;1.13;;
10410;SDS011;5251;52.112;8.606;2022-09-09T02:26:12;2.83;;;1.20;;
10410;SDS011;5251;52.112;8.606;2022-09-09T02:28:44;2.13;;;1.08;;
10410;SDS011;5251;52.112;8.606;2022-09-09T02:31:11;1.08;;;0.98;;
10410;SDS011;5251;52.112;8.606;2022-09-09T02:33:41;2.17;;;1.40;;
10410;SDS011;5251;52.112;8.606;2022-09-09T02:36:11;1.60;;;1.23;;
10410;SDS011;5251;52.112;8.606;2022-09-09T02:38:42;1.50;;;1.10;;
10410;SDS011;5251;52.112;8.606;2022-09-09T02:41:15;2.00;;;1.20;;
10410;SDS011;5251;52.112;8.606;2022-09-09T02:44:00;2.03;;;1.25;;
10410;SDS011;5251;52.112;8.606;2022-09-09T02:49:42;2.30;;;1.00;;
10410;SDS011;5251;52.112;8.606;2022-09-09T02:55:39;1.42;;;1.00;;
10410;SDS011;5251;52.112;8.606;2022-09-09T02:58:12;1.20;;;1.10;;
10410;SDS011;5251;52.112;8.606;2022-09-09T03:00:42;2.30;;;1.17;;
10410;SDS011;5251;52.112;8.606;2022-09-09T03:03:09;1.65;;;1.10;;
10410;SDS011;5251;52.112;8.606;2022-09-09T03:05:35;2.92;;;0.98;;
10410;SDS011;5251;52.112;8.606;2022-09-09T03:08:01;1.88;;;1.20;;
10410;SDS011;5251;52.112;8.606;2022-09-09T03:10:27;1.58;;;0.90;;
10410;SDS011;5251;52.112;8.606;2022-09-09T03:12:52;1.02;;;1.00;;
10410;SDS011;5251;52.112;8.606;2022-09-09T03:15:18;1.88;;;1.40;;
10410;SDS011;5251;52.112;8.606;2022-09-09T03:17:44;1.10;;;1.00;;
10410;SDS011;5251;52.112;8.606;2022-09-09T03:20:09;1.95;;;1.33;;
10410;SDS011;5251;52.112;8.606;2022-09-09T03:22:35;2.25;;;1.45;;
10410;SDS011;5251;52.112;8.606;2022-09-09T03:25:01;2.30;;;1.42;;
10410;SDS011;5251;52.112;8.606;2022-09-09T03:27:28;1.50;;;1.27;;
10410;SDS011;5251;52.112;8.606;2022-09-09T03:29:54;2.08;;;1.45;;
10410;SDS011;5251;52.112;8.606;2022-09-09T03:32:20;3.33;;;1.73;;
10410;SDS011;5251;52.112;8.606;2022-09-09T03:34:47;2.53;;;1.40;;
10410;SDS011;5251;52.112;8.606;2022-09-09T03:37:15;2.80;;;1.33;;
10410;SDS011;5251;52.112;8.606;2022-09-09T03:39:41;2.05;;;1.27;;
10410;SDS011;5251;52.112;8.606;2022-09-09T03:42:06;3.05;;;1.60;;
10410;SDS011;5251;52.112;8.606;2022-09-09T03:44:32;2.33;;;1.40;;
10410;SDS011;5251;52.112;8.606;2022-09-09T03:46:57;3.20;;;1.38;;
10410;SDS011;5251;52.112;8.606;2022-09-09T03:49:25;1.30;;;1.20;;
10410;SDS011;5251;52.112;8.606;2022-09-09T03:51:53;1.55;;;1.25;;
10410;SDS011;5251;52.112;8.606;2022-09-09T03:54:21;1.60;;;1.10;;
10410;SDS011;5251;52.112;8.606;2022-09-09T03:56:47;2.25;;;1.40;;
10410;SDS011;5251;52.112;8.606;2022-09-09T03:59:13;2.13;;;1.30;;
10410;SDS011;5251;52.112;8.606;2022-09-09T04:01:39;1.35;;;1.00;;
10410;SDS011;5251;52.112;8.606;2022-09-09T04:04:05;1.50;;;1.27;;
10410;SDS011;5251;52.112;8.606;2022-09-09T04:06:30;1.25;;;1.15;;
10410;SDS011;5251;52.112;8.606;2022-09-09T04:08:56;4.55;;;1.63;;
10410;SDS011;5251;52.112;8.606;2022-09-09T04:11:21;1.23;;;1.00;;
10410;SDS011;5251;52.112;8.606;2022-09-09T04:13:47;1.45;;;1.15;;
10410;SDS011;5251;52.112;8.606;2022-09-09T04:16:14;1.65;;;1.08;;
10410;SDS011;5251;52.112;8.606;2022-09-09T04:18:40;1.80;;;1.00;;
10410;SDS011;5251;52.112;8.606;2022-09-09T04:21:05;1.40;;;1.20;;
10410;SDS011;5251;52.112;8.606;2022-09-09T04:23:32;1.90;;;1.30;;
10410;SDS011;5251;52.112;8.606;2022-09-09T04:25:59;1.25;;;1.10;;
10410;SDS011;5251;52.112;8.606;2022-09-09T04:28:27;1.38;;;1.08;;
10410;SDS011;5251;52.112;8.606;2022-09-09T04:30:55;2.13;;;1.00;;
10410;SDS011;5251;52.112;8.606;2022-09-09T04:33:23;0.90;;;0.85;;
10410;SDS011;5251;52.112;8.606;2022-09-09T04:35:52;1.20;;;1.10;;
10410;SDS011;5251;52.112;8.606;2022-09-09T04:38:19;1.85;;;1.30;;
10410;SDS011;5251;52.112;8.606;2022-09-09T04:40:49;1.83;;;1.02;;
10410;SDS011;5251;52.112;8.606;2022-09-09T04:43:16;1.33;;;1.23;;
10410;SDS011;5251;52.112;8.606;2022-09-09T04:45:43;1.88;;;1.30;;
10410;SDS011;5251;52.112;8.606;2022-09-09T04:48:11;1.70;;;1.00;;
10410;SDS011;5251;52.112;8.606;2022-09-09T04:50:37;2.70;;;1.30;;
10410;SDS011;5251;52.112;8.606;2022-09-09T04:53:02;1.63;;;1.10;;
10410;SDS011;5251;52.112;8.606;2022-09-09T04:55:30;2.55;;;1.30;;
10410;SDS011;5251;52.112;8.606;2022-09-09T04:57:56;2.58;;;1.55;;
10410;SDS011;5251;52.112;8.606;2022-09-09T05:00:22;3.47;;;1.67;;
10410;SDS011;5251;52.112;8.606;2022-09-09T05:02:49;2.28;;;1.48;;
10410;SDS011;5251;52.112;8.606;2022-09-09T05:05:14;3.05;;;1.40;;
10410;SDS011;5251;52.112;8.606;2022-09-09T05:07:41;1.75;;;1.30;;
10410;SDS011;5251;52.112;8.606;2022-09-09T05:10:07;2.80;;;1.70;;
10410;SDS011;5251;52.112;8.606;2022-09-09T05:12:33;1.67;;;1.20;;
10410;SDS011;5251;52.112;8.606;2022-09-09T05:14:58;2.95;;;1.42;;
10410;SDS011;5251;52.112;8.606;2022-09-09T05:17:24;1.63;;;1.20;;
10410;SDS011;5251;52.112;8.606;2022-09-09T05:19:49;3.03;;;1.40;;
10410;SDS011;5251;52.112;8.606;2022-09-09T05:22:19;1.80;;;1.30;;
10410;SDS011;5251;52.112;8.606;2022-09-09T05:24:45;2.65;;;1.30;;
10410;SDS011;5251;52.112;8.606;2022-09-09T05:27:11;2.25;;;1.33;;
10410;SDS011;5251;52.112;8.606;2022-09-09T05:29:37;2.42;;;1.20;;
10410;SDS011;5251;52.112;8.606;2022-09-09T05:32:03;1.70;;;1.20;;
10410;SDS011;5251;52.112;8.606;2022-09-09T05:34:29;1.90;;;1.20;;
10410;SDS011;5251;52.112;8.606;2022-09-09T05:36:54;1.55;;;1.27;;
10410;SDS011;5251;52.112;8.606;2022-09-09T05:39:20;1.63;;;1.10;;
10410;SDS011;5251;52.112;8.606;2022-09-09T05:41:45;1.35;;;1.08;;
10410;SDS011;5251;52.112;8.606;2022-09-09T05:44:11;1.77;;;1.25;;
10410;SDS011;5251;52.112;8.606;2022-09-09T05:46:38;2.35;;;1.00;;
10410;SDS011;5251;52.112;8.606;2022-09-09T05:49:04;1.90;;;1.20;;
10410;SDS011;5251;52.112;8.606;2022-09-09T05:51:30;2.15;;;1.30;;
10410;SDS011;5251;52.112;8.606;2022-09-09T05:53:56;1.98;;;1.45;;
10410;SDS011;5251;52.112;8.606;2022-09-09T05:56:26;1.42;;;1.20;;
10410;SDS011;5251;52.112;8.606;2022-09-09T05:58:53;1.95;;;1.35;;
10410;SDS011;5251;52.112;8.606;2022-09-09T06:01:21;1.60;;;1.50;;
10410;SDS011;5251;52.112;8.606;2022-09-09T06:03:54;2.22;;;1.30;;
10410;SDS011;5251;52.112;8.606;2022-09-09T06:06:21;1.85;;;1.33;;
10410;SDS011;5251;52.112;8.606;2022-09-09T06:08:52;2.95;;;1.50;;
10410;SDS011;5251;52.112;8.606;2022-09-09T06:11:22;2.15;;;1.50;;
10410;SDS011;5251;52.112;8.606;2022-09-09T06:13:50;2.03;;;1.33;;
10410;SDS011;5251;52.112;8.606;2022-09-09T06:16:20;2.30;;;1.70;;
10410;SDS011;5251;52.112;8.606;2022-09-09T06:18:51;1.88;;;1.38;;
10410;SDS011;5251;52.112;8.606;2022-09-09T06:21:22;3.40;;;1.73;;
10410;SDS011;5251;52.112;8.606;2022-09-09T06:23:49;2.30;;;1.60;;
10410;SDS011;5251;52.112;8.606;2022-09-09T06:28:43;1.75;;;1.45;;
10410;SDS011;5251;52.112;8.606;2022-09-09T06:31:11;2.15;;;1.35;;
10410;SDS011;5251;52.112;8.606;2022-09-09T06:33:39;2.35;;;1.60;;
10410;SDS011;5251;52.112;8.606;2022-09-09T06:36:13;3.95;;;1.50;;
10410;SDS011;5251;52.112;8.606;2022-09-09T06:38:41;2.20;;;1.30;;
10410;SDS011;5251;52.112;8.606;2022-09-09T06:41:07;2.47;;;1.40;;
10410;SDS011;5251;52.112;8.606;2022-09-09T06:43:34;2.78;;;1.63;;
10410;SDS011;5251;52.112;8.606;2022-09-09T06:46:06;5.03;;;1.65;;
10410;SDS011;5251;52.112;8.606;2022-09-09T06:48:36;2.05;;;1.42;;
10410;SDS011;5251;52.112;8.606;2022-09-09T06:51:06;2.28;;;1.60;;
10410;SDS011;5251;52.112;8.606;2022-09-09T06:53:34;2.03;;;1.60;;
10410;SDS011;5251;52.112;8.606;2022-09-09T06:56:01;2.88;;;1.50;;
10410;SDS011;5251;52.112;8.606;2022-09-09T06:58:28;1.98;;;1.50;;
10410;SDS011;5251;52.112;8.606;2022-09-09T07:01:06;2.17;;;1.23;;
10410;SDS011;5251;52.112;8.606;2022-09-09T07:03:32;2.95;;;1.48;;
10410;SDS011;5251;52.112;8.606;2022-09-09T07:05:58;2.10;;;1.30;;
10410;SDS011;5251;52.112;8.606;2022-09-09T07:08:24;2.58;;;1.30;;
10410;SDS011;5251;52.112;8.606;2022-09-09T07:10:51;1.95;;;1.10;;
10410;SDS011;5251;52.112;8.606;2022-09-09T07:13:19;1.88;;;1.20;;
10410;SDS011;5251;52.112;8.606;2022-09-09T07:15:50;2.72;;;1.38;;
10410;SDS011;5251;52.112;8.606;2022-09-09T07:18:16;3.67;;;1.20;;
10410;SDS011;5251;52.112;8.606;2022-09-09T07:20:42;2.08;;;1.13;;
10410;SDS011;5251;52.112;8.606;2022-09-09T07:23:07;2.35;;;1.15;;
10410;SDS011;5251;52.112;8.606;2022-09-09T07:25:33;3.28;;;1.40;;
10410;SDS011;5251;52.112;8.606;2022-09-09T07:27:58;1.42;;;1.27;;
10410;SDS011;5251;52.112;8.606;2022-09-09T07:30:24;3.40;;;1.33;;
10410;SDS011;5251;52.112;8.606;2022-09-09T07:32:53;2.95;;;1.13;;
10410;SDS011;5251;52.112;8.606;2022-09-09T07:35:19;2.20;;;1.13;;
10410;SDS011;5251;52.112;8.606;2022-09-09T07:37:45;2.83;;;1.30;;
10410;SDS011;5251;52.112;8.606;2022-09-09T07:40:10;1.45;;;1.20;;
10410;SDS011;5251;52.112;8.606;2022-09-09T07:42:36;2.65;;;1.33;;
10410;SDS011;5251;52.112;8.606;2022-09-09T07:45:02;3.00;;;1.20;;
10410;SDS011;5251;52.112;8.606;2022-09-09T07:47:29;2.03;;;1.20;;
10410;SDS011;5251;52.112;8.606;2022-09-09T07:49:54;3.45;;;1.15;;
10410;SDS011;5251;52.112;8.606;2022-09-09T07:52:20;1.95;;;1.20;;
10410;SDS011;5251;52.112;8.606;2022-09-09T07:54:46;3.17;;;1.20;;
10410;SDS011;5251;52.112;8.606;2022-09-09T07:57:12;1.98;;;1.20;;
10410;SDS011;5251;52.112;8.606;2022-09-09T07:59:38;1.58;;;0.93;;
10410;SDS011;5251;52.112;8.606;2022-09-09T08:02:04;2.72;;;1.25;;
10410;SDS011;5251;52.112;8.606;2022-09-09T08:04:29;1.95;;;1.35;;
10410;SDS011;5251;52.112;8.606;2022-09-09T08:06:56;2.90;;;1.27;;
10410;SDS011;5251;52.112;8.606;2022-09-09T08:09:24;4.55;;;1.85;;
10410;SDS011;5251;52.112;8.606;2022-09-09T08:11:53;2.22;;;1.20;;
10410;SDS011;5251;52.112;8.606;2022-09-09T08:14:21;1.52;;;0.90;;
10410;SDS011;5251;52.112;8.606;2022-09-09T08:16:47;2.97;;;1.10;;
10410;SDS011;5251;52.112;8.606;2022-09-09T08:19:14;3.70;;;1.23;;
10410;SDS011;5251;52.112;8.606;2022-09-09T08:21:40;3.50;;;1.10;;
10410;SDS011;5251;52.112;8.606;2022-09-09T08:24:06;3.15;;;1.52;;
10410;SDS011;5251;52.112;8.606;2022-09-09T08:26:34;1.90;;;1.40;;
10410;SDS011;5251;52.112;8.606;2022-09-09T08:29:05;1.85;;;1.00;;
10410;SDS011;5251;52.112;8.606;2022-09-09T08:31:33;2.20;;;1.10;;
10410;SDS011;5251;52.112;8.606;2022-09-09T08:34:02;1.40;;;0.98;;
10410;SDS011;5251;52.112;8.606;2022-09-09T08:36:30;2.33;;;1.23;;
10410;SDS011;5251;52.112;8.606;2022-09-09T08:39:01;2.70;;;1.13;;
10410;SDS011;5251;52.112;8.606;2022-09-09T08:47:47;2.17;;;1.00;;
10410;SDS011;5251;52.112;8.606;2022-09-09T08:50:25;2.63;;;1.38;;
10410;SDS011;5251;52.112;8.606;2022-09-09T08:55:48;3.63;;;1.10;;
10410;SDS011;5251;52.112;8.606;2022-09-09T08:58:26;2.80;;;1.48;;
10410;SDS011;5251;52.112;8.606;2022-09-09T09:11:36;5.55;;;1.30;;
10410;SDS011;5251;52.112;8.606;2022-09-09T09:14:04;2.25;;;1.02;;
10410;SDS011;5251;52.112;8.606;2022-09-09T09:19:18;3.38;;;1.30;;
10410;SDS011;5251;52.112;8.606;2022-09-09T09:21:55;7.15;;;1.27;;
10410;SDS011;5251;52.112;8.606;2022-09-09T09:25:09;1.80;;;1.08;;
10410;SDS011;5251;52.112;8.606;2022-09-09T09:27:44;2.38;;;1.10;;
10410;SDS011;5251;52.112;8.606;2022-09-09T09:30:42;2.35;;;1.10;;
10410;SDS011;5251;52.112;8.606;2022-09-09T09:36:12;3.60;;;1.48;;
10410;SDS011;5251;52.112;8.606;2022-09-09T09:38:50;2.30;;;1.20;;
10410;SDS011;5251;52.112;8.606;2022-09-09T09:41:38;2.55;;;1.15;;
10410;SDS011;5251;52.112;8.606;2022-09-09T09:44:05;4.97;;;1.40;;
10410;SDS011;5251;52.112;8.606;2022-09-09T09:46:46;1.98;;;0.98;;
10410;SDS011;5251;52.112;8.606;2022-09-09T09:49:12;3.90;;;1.30;;
10410;SDS011;5251;52.112;8.606;2022-09-09T09:51:38;1.85;;;1.10;;
10410;SDS011;5251;52.112;8.606;2022-09-09T09:56:43;2.05;;;0.95;;
10410;SDS011;5251;52.112;8.606;2022-09-09T10:02:16;2.03;;;1.13;;
10410;SDS011;5251;52.112;8.606;2022-09-09T10:04:45;3.35;;;1.20;;
10410;SDS011;5251;52.112;8.606;2022-09-09T10:07:21;2.50;;;1.00;;
10410;SDS011;5251;52.112;8.606;2022-09-09T10:09:50;2.53;;;1.02;;
10410;SDS011;5251;52.112;8.606;2022-09-09T10:12:26;2.13;;;0.95;;
10410;SDS011;5251;52.112;8.606;2022-09-09T10:17:54;1.38;;;0.80;;
10410;SDS011;5251;52.112;8.606;2022-09-09T10:31:40;10.45;;;1.90;;
10410;SDS011;5251;52.112;8.606;2022-09-09T10:37:35;1.75;;;0.85;;
10410;SDS011;5251;52.112;8.606;2022-09-09T10:40:22;4.00;;;1.60;;
10410;SDS011;5251;52.112;8.606;2022-09-09T10:51:23;2.05;;;0.82;;
10410;SDS011;5251;52.112;8.606;2022-09-09T10:56:42;1.90;;;1.05;;
10410;SDS011;5251;52.112;8.606;2022-09-09T10:59:12;2.85;;;1.13;;
10410;SDS011;5251;52.112;8.606;2022-09-09T11:04:42;5.07;;;1.35;;
10410;SDS011;5251;52.112;8.606;2022-09-09T11:07:19;3.10;;;1.20;;
10410;SDS011;5251;52.112;8.606;2022-09-09T11:10:02;2.70;;;1.10;;
10410;SDS011;5251;52.112;8.606;2022-09-09T11:12:42;3.13;;;1.20;;
10410;SDS011;5251;52.112;8.606;2022-09-09T11:15:28;2.17;;;1.15;;
10410;SDS011;5251;52.112;8.606;2022-09-09T11:18:01;1.75;;;0.95;;
10410;SDS011;5251;52.112;8.606;2022-09-09T11:20:29;1.70;;;0.88;;
10410;SDS011;5251;52.112;8.606;2022-09-09T11:25:41;2.75;;;1.00;;
10410;SDS011;5251;52.112;8.606;2022-09-09T11:28:15;2.22;;;1.20;;
10410;SDS011;5251;52.112;8.606;2022-09-09T11:41:52;7.15;;;1.10;;
10410;SDS011;5251;52.112;8.606;2022-09-09T11:44:28;2.15;;;1.42;;
10410;SDS011;5251;52.112;8.606;2022-09-09T11:46:55;2.80;;;1.10;;
10410;SDS011;5251;52.112;8.606;2022-09-09T11:49:26;2.03;;;1.23;;
10410;SDS011;5251;52.112;8.606;2022-09-09T11:51:54;1.92;;;0.85;;
10410;SDS011;5251;52.112;8.606;2022-09-09T11:54:30;2.22;;;1.13;;
10410;SDS011;5251;52.112;8.606;2022-09-09T11:56:57;1.42;;;0.82;;
10410;SDS011;5251;52.112;8.606;2022-09-09T11:59:24;1.73;;;1.10;;
10410;SDS011;5251;52.112;8.606;2022-09-09T12:01:55;2.17;;;1.02;;
10410;SDS011;5251;52.112;8.606;2022-09-09T12:04:38;1.95;;;0.80;;
10410;SDS011;5251;52.112;8.606;2022-09-09T12:14:58;2.67;;;1.15;;
10410;SDS011;5251;52.112;8.606;2022-09-09T12:17:28;2.33;;;1.20;;
10410;SDS011;5251;52.112;8.606;2022-09-09T12:20:04;3.05;;;1.10;;
10410;SDS011;5251;52.112;8.606;2022-09-09T12:28:09;2.42;;;1.10;;
10410;SDS011;5251;52.112;8.606;2022-09-09T12:30:55;1.75;;;0.82;;
10410;SDS011;5251;52.112;8.606;2022-09-09T12:33:36;2.17;;;0.90;;
10410;SDS011;5251;52.112;8.606;2022-09-09T12:36:11;2.50;;;0.93;;
10410;SDS011;5251;52.112;8.606;2022-09-09T12:38:41;1.85;;;1.00;;
10410;SDS011;5251;52.112;8.606;2022-09-09T12:41:17;1.98;;;1.08;;
10410;SDS011;5251;52.112;8.606;2022-09-09T12:43:49;3.10;;;1.00;;
10410;SDS011;5251;52.112;8.606;2022-09-09T12:46:48;1.15;;;0.80;;
10410;SDS011;5251;52.112;8.606;2022-09-09T12:51:52;1.80;;;0.98;;
10410;SDS011;5251;52.112;8.606;2022-09-09T12:54:18;2.35;;;0.88;;
10410;SDS011;5251;52.112;8.606;2022-09-09T12:56:45;1.15;;;0.80;;
10410;SDS011;5251;52.112;8.606;2022-09-09T12:59:26;2.05;;;1.13;;
10410;SDS011;5251;52.112;8.606;2022-09-09T13:02:00;2.28;;;1.00;;
10410;SDS011;5251;52.112;8.606;2022-09-09T13:04:26;1.35;;;0.90;;
10410;SDS011;5251;52.112;8.606;2022-09-09T13:06:51;1.85;;;1.13;;
10410;SDS011;5251;52.112;8.606;2022-09-09T13:09:17;1.85;;;0.88;;
10410;SDS011;5251;52.112;8.606;2022-09-09T13:11:46;2.50;;;1.00;;
10410;SDS011;5251;52.112;8.606;2022-09-09T13:14:21;1.73;;;0.95;;
10410;SDS011;5251;52.112;8.606;2022-09-09T13:17:03;3.92;;;1.20;;
10410;SDS011;5251;52.112;8.606;2022-09-09T13:19:35;3.90;;;0.90;;
10410;SDS011;5251;52.112;8.606;2022-09-09T13:22:13;0.65;;;0.60;;
10410;SDS011;5251;52.112;8.606;2022-09-09T13:24:45;4.05;;;1.20;;
10410;SDS011;5251;52.112;8.606;2022-09-09T13:27:26;7.40;;;1.60;;
10410;SDS011;5251;52.112;8.606;2022-09-09T13:33:03;3.58;;;0.85;;
10410;SDS011;5251;52.112;8.606;2022-09-09T13:35:31;2.92;;;1.20;;
10410;SDS011;5251;52.112;8.606;2022-09-09T13:37:58;1.92;;;1.08;;
10410;SDS011;5251;52.112;8.606;2022-09-09T13:40:25;2.47;;;1.33;;
10410;SDS011;5251;52.112;8.606;2022-09-09T13:42:52;1.50;;;0.90;;
10410;SDS011;5251;52.112;8.606;2022-09-09T13:45:22;3.08;;;1.15;;
10410;SDS011;5251;52.112;8.606;2022-09-09T13:47:51;2.72;;;1.13;;
10410;SDS011;5251;52.112;8.606;2022-09-09T13:50:29;1.58;;;0.88;;
10410;SDS011;5251;52.112;8.606;2022-09-09T13:52:56;2.22;;;1.00;;
10410;SDS011;5251;52.112;8.606;2022-09-09T13:55:23;1.40;;;1.00;;
10410;SDS011;5251;52.112;8.606;2022-09-09T13:57:54;1.27;;;0.82;;
10410;SDS011;5251;52.112;8.606;2022-09-09T14:00:25;1.40;;;0.95;;
10410;SDS011;5251;52.112;8.606;2022-09-09T14:02:51;1.80;;;0.95;;
10410;SDS011;5251;52.112;8.606;2022-09-09T14:05:17;1.60;;;0.77;;
10410;SDS011;5251;52.112;8.606;2022-09-09T14:07:44;1.42;;;0.90;;
10410;SDS011;5251;52.112;8.606;2022-09-09T14:10:10;1.83;;;0.70;;
10410;SDS011;5251;52.112;8.606;2022-09-09T14:12:36;1.10;;;0.70;;
10410;SDS011;5251;52.112;8.606;2022-09-09T14:15:04;1.20;;;0.70;;
10410;SDS011;5251;52.112;8.606;2022-09-09T14:17:31;1.25;;;0.70;;
10410;SDS011;5251;52.112;8.606;2022-09-09T14:19:58;1.17;;;0.70;;
10410;SDS011;5251;52.112;8.606;2022-09-09T14:22:25;2.65;;;0.63;;
10410;SDS011;5251;52.112;8.606;2022-09-09T14:24:51;1.10;;;0.73;;
10410;SDS011;5251;52.112;8.606;2022-09-09T14:27:16;1.10;;;0.70;;
10410;SDS011;5251;52.112;8.606;2022-09-09T14:29:43;1.83;;;0.85;;
10410;SDS011;5251;52.112;8.606;2022-09-09T14:32:09;1.75;;;0.93;;
10410;SDS011;5251;52.112;8.606;2022-09-09T14:34:35;1.50;;;0.80;;
10410;SDS011;5251;52.112;8.606;2022-09-09T14:37:01;0.88;;;0.80;;
10410;SDS011;5251;52.112;8.606;2022-09-09T14:39:27;1.13;;;0.70;;
10410;SDS011;5251;52.112;8.606;2022-09-09T14:41:53;1.88;;;0.90;;
10410;SDS011;5251;52.112;8.606;2022-09-09T14:44:18;1.90;;;0.80;;
10410;SDS011;5251;52.112;8.606;2022-09-09T14:46:44;1.23;;;0.60;;
10410;SDS011;5251;52.112;8.606;2022-09-09T14:49:10;1.67;;;0.93;;
10410;SDS011;5251;52.112;8.606;2022-09-09T14:51:37;1.58;;;0.77;;
10410;SDS011;5251;52.112;8.606;2022-09-09T14:54:03;1.13;;;0.82;;
10410;SDS011;5251;52.112;8.606;2022-09-09T14:56:30;1.38;;;0.90;;
10410;SDS011;5251;52.112;8.606;2022-09-09T14:58:59;0.73;;;0.70;;
10410;SDS011;5251;52.112;8.606;2022-09-09T15:01:28;1.70;;;0.90;;
10410;SDS011;5251;52.112;8.606;2022-09-09T15:03:55;1.00;;;0.70;;
10410;SDS011;5251;52.112;8.606;2022-09-09T15:06:24;2.40;;;0.90;;
10410;SDS011;5251;52.112;8.606;2022-09-09T15:08:51;1.60;;;0.70;;
10410;SDS011;5251;52.112;8.606;2022-09-09T15:11:18;0.82;;;0.60;;
10410;SDS011;5251;52.112;8.606;2022-09-09T15:13:45;0.95;;;0.70;;
10410;SDS011;5251;52.112;8.606;2022-09-09T15:16:13;1.10;;;0.70;;
10410;SDS011;5251;52.112;8.606;2022-09-09T15:18:40;1.63;;;0.90;;
10410;SDS011;5251;52.112;8.606;2022-09-09T15:21:10;1.08;;;0.80;;
10410;SDS011;5251;52.112;8.606;2022-09-09T15:23:41;2.17;;;0.95;;
10410;SDS011;5251;52.112;8.606;2022-09-09T15:26:08;1.08;;;0.60;;
10410;SDS011;5251;52.112;8.606;2022-09-09T15:28:34;1.10;;;0.68;;
10410;SDS011;5251;52.112;8.606;2022-09-09T15:31:04;1.50;;;0.80;;
10410;SDS011;5251;52.112;8.606;2022-09-09T15:33:32;1.42;;;0.98;;
10410;SDS011;5251;52.112;8.606;2022-09-09T15:35:58;1.08;;;0.70;;
10410;SDS011;5251;52.112;8.606;2022-09-09T15:38:24;1.45;;;0.70;;
10410;SDS011;5251;52.112;8.606;2022-09-09T15:40:53;2.65;;;0.75;;
10410;SDS011;5251;52.112;8.606;2022-09-09T15:43:20;1.92;;;0.80;;
10410;SDS011;5251;52.112;8.606;2022-09-09T15:45:48;1.95;;;0.70;;
10410;SDS011;5251;52.112;8.606;2022-09-09T15:48:19;1.77;;;0.73;;
10410;SDS011;5251;52.112;8.606;2022-09-09T15:51:01;1.38;;;0.80;;
10410;SDS011;5251;52.112;8.606;2022-09-09T15:53:28;1.98;;;1.05;;
10410;SDS011;5251;52.112;8.606;2022-09-09T15:55:55;1.90;;;0.90;;
10410;SDS011;5251;52.112;8.606;2022-09-09T15:58:20;1.00;;;0.80;;
10410;SDS011;5251;52.112;8.606;2022-09-09T16:00:46;2.25;;;1.15;;
10410;SDS011;5251;52.112;8.606;2022-09-09T16:03:11;1.38;;;0.65;;
10410;SDS011;5251;52.112;8.606;2022-09-09T16:05:37;2.95;;;1.00;;
10410;SDS011;5251;52.112;8.606;2022-09-09T16:08:03;1.63;;;0.80;;
10410;SDS011;5251;52.112;8.606;2022-09-09T16:10:29;1.00;;;0.80;;
10410;SDS011;5251;52.112;8.606;2022-09-09T16:12:55;1.65;;;0.70;;
10410;SDS011;5251;52.112;8.606;2022-09-09T16:15:21;1.50;;;0.88;;
10410;SDS011;5251;52.112;8.606;2022-09-09T16:17:48;1.15;;;0.82;;
10410;SDS011;5251;52.112;8.606;2022-09-09T16:20:14;1.10;;;0.80;;
10410;SDS011;5251;52.112;8.606;2022-09-09T16:22:39;1.77;;;0.82;;
10410;SDS011;5251;52.112;8.606;2022-09-09T16:25:05;1.30;;;0.70;;
10410;SDS011;5251;52.112;8.606;2022-09-09T16:27:31;2.33;;;0.95;;
10410;SDS011;5251;52.112;8.606;2022-09-09T16:29:56;1.92;;;0.60;;
10410;SDS011;5251;52.112;8.606;2022-09-09T16:32:22;2.35;;;0.98;;
10410;SDS011;5251;52.112;8.606;2022-09-09T16:34:48;0.80;;;0.60;;
10410;SDS011;5251;52.112;8.606;2022-09-09T16:37:13;1.10;;;0.60;;
10410;SDS011;5251;52.112;8.606;2022-09-09T16:39:39;1.65;;;0.80;;
10410;SDS011;5251;52.112;8.606;2022-09-09T16:42:04;0.68;;;0.68;;
10410;SDS011;5251;52.112;8.606;2022-09-09T16:44:30;0.55;;;0.50;;
10410;SDS011;5251;52.112;8.606;2022-09-09T16:46:56;0.88;;;0.70;;
10410;SDS011;5251;52.112;8.606;2022-09-09T16:49:21;0.98;;;0.60;;
10410;SDS011;5251;52.112;8.606;2022-09-09T16:51:50;0.80;;;0.60;;
10410;SDS011;5251;52.112;8.606;2022-09-09T16:54:19;1.20;;;0.70;;
10410;SDS011;5251;52.112;8.606;2022-09-09T16:56:45;1.30;;;0.70;;
10410;SDS011;5251;52.112;8.606;2022-09-09T16:59:16;1.95;;;0.90;;
10410;SDS011;5251;52.112;8.606;2022-09-09T17:01:43;1.05;;;0.63;;
10410;SDS011;5251;52.112;8.606;2022-09-09T17:04:11;1.35;;;0.73;;
10410;SDS011;5251;52.112;8.606;2022-09-09T17:06:45;1.38;;;0.77;;
10410;SDS011;5251;52.112;8.606;2022-09-09T17:09:14;1.30;;;0.80;;
10410;SDS011;5251;52.112;8.606;2022-09-09T17:11:40;2.08;;;0.93;;
10410;SDS011;5251;52.112;8.606;2022-09-09T17:14:06;0.65;;;0.60;;
10410;SDS011;5251;52.112;8.606;2022-09-09T17:16:34;1.50;;;0.82;;
10410;SDS011;5251;52.112;8.606;2022-09-09T17:19:01;2.53;;;0.85;;
10410;SDS011;5251;52.112;8.606;2022-09-09T17:21:28;1.85;;;0.80;;
10410;SDS011;5251;52.112;8.606;2022-09-09T17:23:55;1.40;;;0.85;;
10410;SDS011;5251;52.112;8.606;2022-09-09T17:26:23;1.92;;;0.80;;
10410;SDS011;5251;52.112;8.606;2022-09-09T17:28:54;2.47;;;0.90;;
10410;SDS011;5251;52.112;8.606;2022-09-09T17:31:23;1.13;;;0.80;;